createdAt,value
2023-03-23T00:00:33.288Z,15.14
2023-03-23T00:04:34.959Z,15.18
2023-03-23T00:08:46.010Z,15.16
2023-03-23T00:12:50.856Z,15.13
2023-03-23T00:16:52.637Z,15.12
2023-03-23T00:20:57.892Z,15.15
2023-03-23T00:24:59.512Z,15.20
2023-03-23T00:29:04.869Z,15.23
2023-03-23T00:33:06.555Z,15.27
2023-03-23T00:37:08.893Z,15.30
2023-03-23T00:41:12.550Z,15.36
2023-03-23T00:45:14.899Z,15.31
2023-03-23T00:49:19.957Z,15.32
2023-03-23T00:53:22.060Z,15.38
2023-03-23T00:57:25.296Z,15.37
2023-03-23T01:01:27.035Z,15.36
2023-03-23T01:05:33.164Z,15.34
2023-03-23T01:09:36.060Z,15.26
2023-03-23T01:13:39.297Z,15.14
2023-03-23T01:17:41.740Z,15.10
2023-03-23T01:21:43.618Z,15.08
2023-03-23T01:25:46.394Z,15.09
2023-03-23T01:29:48.072Z,15.08
2023-03-23T01:33:53.211Z,15.11
2023-03-23T01:37:56.376Z,15.08
2023-03-23T01:41:58.695Z,15.01
2023-03-23T01:46:01.046Z,15.07
2023-03-23T01:50:02.845Z,15.08
2023-03-23T01:54:09.546Z,15.06
2023-03-23T01:58:13.589Z,15.07
2023-03-23T02:02:17.213Z,15.12
2023-03-23T02:06:21.389Z,15.08
2023-03-23T02:10:42.076Z,15.06
2023-03-23T02:14:53.804Z,15.05
2023-03-23T02:18:59.107Z,15.02
2023-03-23T02:23:13.163Z,14.93
2023-03-23T02:27:44.135Z,14.90
2023-03-23T02:31:59.429Z,14.85
2023-03-23T02:36:28.002Z,14.81
2023-03-23T02:40:34.515Z,14.77
2023-03-23T02:44:39.950Z,14.75
2023-03-23T02:48:45.165Z,14.74
2023-03-23T02:52:49.553Z,14.72
2023-03-23T02:56:52.943Z,14.70
2023-03-23T03:01:00.155Z,14.69
2023-03-23T03:05:08.076Z,14.69
2023-03-23T03:09:27.507Z,14.68
2023-03-23T03:14:19.944Z,14.64
2023-03-23T03:18:39.286Z,14.54
2023-03-23T03:22:44.370Z,14.53
2023-03-23T03:26:49.537Z,14.59
2023-03-23T03:31:01.736Z,14.63
2023-03-23T03:35:04.745Z,14.70
2023-03-23T03:39:09.477Z,14.73
2023-03-23T03:43:12.251Z,14.75
2023-03-23T03:47:14.121Z,14.77
2023-03-23T03:51:15.778Z,14.73
2023-03-23T03:55:22.264Z,14.78
2023-03-23T03:59:27.232Z,14.78
2023-03-23T04:03:47.182Z,14.80
2023-03-23T04:08:09.543Z,14.84
2023-03-23T04:12:11.704Z,14.86
2023-03-23T04:16:30.716Z,14.86
2023-03-23T04:20:36.004Z,14.81
2023-03-23T04:24:57.057Z,14.88
2023-03-23T04:29:00.297Z,14.83
2023-03-23T04:33:57.495Z,14.79
2023-03-23T04:37:57.990Z,14.74
2023-03-23T04:42:02.557Z,14.64
2023-03-23T04:46:29.992Z,14.56
2023-03-23T04:50:35.763Z,14.50
2023-03-23T04:54:48.987Z,14.45
2023-03-23T04:58:51.561Z,14.36
2023-03-23T05:03:09.118Z,14.42
2023-03-23T05:07:12.662Z,14.49
2023-03-23T05:11:22.041Z,14.55
2023-03-23T05:15:25.078Z,14.54
2023-03-23T05:19:27.540Z,14.68
2023-03-23T05:23:34.932Z,14.70
2023-03-23T05:27:50.845Z,14.69
2023-03-23T05:32:00.826Z,14.64
2023-03-23T05:36:05.563Z,14.59
2023-03-23T05:40:17.726Z,14.46
2023-03-23T05:44:26.260Z,14.27
2023-03-23T05:48:31.607Z,14.06
2023-03-23T05:52:36.579Z,14.04
2023-03-23T05:56:42.079Z,14.10
2023-03-23T06:00:57.241Z,14.22
2023-03-23T06:05:04.223Z,14.26
2023-03-23T06:09:11.211Z,14.21
2023-03-23T06:13:37.840Z,14.22
2023-03-23T06:17:44.719Z,14.23
2023-03-23T06:21:48.679Z,14.18
2023-03-23T06:26:30.541Z,14.11
2023-03-23T06:30:37.644Z,14.07
2023-03-23T06:34:41.738Z,13.99
2023-03-23T06:38:56.539Z,13.99
2023-03-23T06:43:08.562Z,13.92
2023-03-23T06:47:33.796Z,13.84
2023-03-23T06:51:38.191Z,13.73
2023-03-23T06:55:40.740Z,13.68
2023-03-23T06:59:43.757Z,13.54
2023-03-23T07:03:47.131Z,13.50
2023-03-23T07:07:54.820Z,13.51
2023-03-23T07:12:10.548Z,13.57
2023-03-23T07:16:20.261Z,13.72
2023-03-23T07:20:23.998Z,13.80
2023-03-23T07:24:25.953Z,13.94
2023-03-23T07:28:41.423Z,14.03
2023-03-23T07:33:14.799Z,14.04
2023-03-23T07:37:18.538Z,13.87
2023-03-23T07:41:24.611Z,13.88
2023-03-23T07:45:31.080Z,13.81
2023-03-23T07:49:35.498Z,13.71
2023-03-23T07:53:52.518Z,13.67
2023-03-23T07:58:20.246Z,13.70
2023-03-23T08:02:29.237Z,13.73
2023-03-23T08:06:58.126Z,13.77
2023-03-23T08:11:16.521Z,13.86
2023-03-23T08:15:32.237Z,13.99
2023-03-23T08:19:47.562Z,13.95
2023-03-23T08:24:19.857Z,13.85
2023-03-23T08:29:00.246Z,14.01
2023-03-23T08:33:27.210Z,14.00
2023-03-23T08:37:53.742Z,13.94
2023-03-23T08:42:15.303Z,13.98
2023-03-23T08:46:35.800Z,13.95
2023-03-23T08:50:56.627Z,13.98
2023-03-23T08:55:30.254Z,13.91
2023-03-23T08:59:49.504Z,13.96
2023-03-23T09:03:56.518Z,13.94
2023-03-23T09:08:19.452Z,13.93
2023-03-23T09:12:23.518Z,13.97
2023-03-23T09:16:27.791Z,14.01
2023-03-23T09:20:30.482Z,14.22
2023-03-23T09:24:34.519Z,14.40
2023-03-23T09:28:37.736Z,14.52
2023-03-23T09:32:41.535Z,14.64
2023-03-23T09:36:45.682Z,14.67
2023-03-23T09:41:06.540Z,14.98
2023-03-23T09:45:23.359Z,15.11
2023-03-23T09:49:30.866Z,15.32
2023-03-23T09:53:51.039Z,15.45
2023-03-23T09:58:00.108Z,15.68
2023-03-23T10:02:16.526Z,15.75
2023-03-23T10:06:23.302Z,15.91
2023-03-23T10:10:44.523Z,15.80
2023-03-23T10:15:10.546Z,15.72
2023-03-23T10:19:31.778Z,15.83
2023-03-23T10:24:02.533Z,15.68
2023-03-23T10:28:11.825Z,15.62
2023-03-23T10:32:19.609Z,15.53
2023-03-23T10:36:33.222Z,15.54
2023-03-23T10:40:39.056Z,15.38
2023-03-23T10:44:42.631Z,15.08
2023-03-23T10:48:45.129Z,14.88
2023-03-23T10:52:53.673Z,14.73
2023-03-23T10:56:59.679Z,14.81
2023-03-23T11:01:06.520Z,14.84
2023-03-23T11:05:20.231Z,14.85
2023-03-23T11:09:37.827Z,14.92
2023-03-23T11:13:47.130Z,15.14
2023-03-23T11:18:01.577Z,15.39
2023-03-23T11:22:07.507Z,15.72
2023-03-23T11:26:22.295Z,15.83
2023-03-23T11:30:28.702Z,15.78
2023-03-23T11:34:36.491Z,15.91
2023-03-23T11:38:39.032Z,15.99
2023-03-23T11:42:47.801Z,16.00
2023-03-23T11:47:17.532Z,15.78
2023-03-23T11:51:31.268Z,15.69
2023-03-23T11:55:57.496Z,15.38
2023-03-23T12:00:02.100Z,15.26
2023-03-23T12:05:03.361Z,15.13
2023-03-23T12:09:38.520Z,14.91
2023-03-23T12:14:09.717Z,14.84
2023-03-23T12:18:26.849Z,14.72
2023-03-23T12:22:50.134Z,14.77
2023-03-23T12:27:20.511Z,14.76
2023-03-23T12:31:36.511Z,14.90
2023-03-23T12:35:57.341Z,14.92
2023-03-23T12:40:46.754Z,15.15
2023-03-23T12:44:54.086Z,15.65
2023-03-23T12:49:06.689Z,16.17
2023-03-23T12:53:18.515Z,16.55
2023-03-23T12:57:28.523Z,17.22
2023-03-23T13:05:42.113Z,17.73
2023-03-23T13:09:53.401Z,17.37
2023-03-23T13:14:10.915Z,17.10
2023-03-23T13:18:45.814Z,16.79
2023-03-23T13:22:54.512Z,16.68
2023-03-23T13:27:02.268Z,16.32
2023-03-23T13:31:28.914Z,16.39
2023-03-23T13:35:39.508Z,16.50
2023-03-23T13:39:57.658Z,16.20
2023-03-23T13:44:18.358Z,16.07
2023-03-23T13:48:26.156Z,15.99
2023-03-23T13:52:46.789Z,16.18
2023-03-23T13:57:08.264Z,16.44
2023-03-23T14:01:18.496Z,16.98
2023-03-23T14:05:21.473Z,17.19
2023-03-23T14:09:36.032Z,17.02
2023-03-23T14:13:45.020Z,16.75
2023-03-23T14:17:46.891Z,16.74
2023-03-23T14:22:00.498Z,16.51
2023-03-23T14:26:13.325Z,16.38
2023-03-23T14:30:25.488Z,16.35
2023-03-23T14:34:32.722Z,16.28
2023-03-23T14:38:36.406Z,16.27
2023-03-23T14:42:39.046Z,16.15
2023-03-23T14:46:43.545Z,16.06
2023-03-23T14:50:53.240Z,16.13
2023-03-23T14:54:56.501Z,16.09
2023-03-23T14:59:05.149Z,15.94
2023-03-23T15:03:14.146Z,15.93
2023-03-23T15:07:19.216Z,15.92
2023-03-23T15:11:31.506Z,15.86
2023-03-23T15:15:36.174Z,15.90
2023-03-23T15:19:44.556Z,15.87
2023-03-23T15:23:46.372Z,15.98
2023-03-23T15:27:57.363Z,16.03
2023-03-23T15:32:00.601Z,16.02
2023-03-23T15:36:16.646Z,16.06
2023-03-23T15:40:25.496Z,16.13
2023-03-23T15:44:33.579Z,16.15
2023-03-23T15:49:12.484Z,16.07
2023-03-23T15:53:26.845Z,15.87
2023-03-23T15:57:30.779Z,15.73
2023-03-23T16:01:33.008Z,15.70
2023-03-23T16:05:37.204Z,15.80
2023-03-23T16:09:45.044Z,15.75
2023-03-23T16:13:47.246Z,15.66
2023-03-23T16:17:51.531Z,15.67
2023-03-23T16:21:53.479Z,15.66
2023-03-23T16:25:56.557Z,15.59
2023-03-23T16:30:05.132Z,15.56
2023-03-23T16:34:07.481Z,15.44
2023-03-23T16:38:16.073Z,15.34
2023-03-23T16:42:18.514Z,15.26
2023-03-23T16:46:20.490Z,15.12
2023-03-23T16:50:22.481Z,14.96
2023-03-23T16:54:25.518Z,14.96
2023-03-23T16:58:31.744Z,14.89
2023-03-23T17:02:36.589Z,14.85
2023-03-23T17:06:42.856Z,14.79
2023-03-23T17:10:48.110Z,14.73
2023-03-23T17:14:52.539Z,14.59
2023-03-23T17:18:54.291Z,14.47
2023-03-23T17:22:56.031Z,14.38
2023-03-23T17:26:57.738Z,14.32
2023-03-23T17:30:59.611Z,14.28
2023-03-23T17:35:02.720Z,14.20
2023-03-23T17:39:04.617Z,14.14
2023-03-23T17:43:08.496Z,14.09
2023-03-23T17:47:11.685Z,14.04
2023-03-23T17:51:13.782Z,13.96
2023-03-23T17:55:16.138Z,13.97
2023-03-23T17:59:18.137Z,14.00
2023-03-23T18:03:20.115Z,14.02
2023-03-23T18:07:23.670Z,14.07
2023-03-23T18:11:25.437Z,14.12
2023-03-23T18:15:29.424Z,14.16
2023-03-23T18:19:33.496Z,14.16
2023-03-23T18:23:46.176Z,14.23
2023-03-23T18:27:51.659Z,14.30
2023-03-23T18:31:53.353Z,14.38
2023-03-23T18:35:59.580Z,14.41
2023-03-23T18:40:02.317Z,14.43
2023-03-23T18:44:04.517Z,14.47
2023-03-23T18:48:09.646Z,14.49
2023-03-23T18:52:11.511Z,14.49
2023-03-23T18:56:16.717Z,14.49
2023-03-23T19:00:18.919Z,14.51
2023-03-23T19:04:22.636Z,14.48
2023-03-23T19:08:25.075Z,14.52
2023-03-23T19:12:27.146Z,14.53
2023-03-23T19:16:31.294Z,14.56
2023-03-23T19:21:06.145Z,14.56
2023-03-23T19:24:57.337Z,14.55
2023-03-23T19:33:04.666Z,14.54
2023-03-23T19:37:11.020Z,14.52
2023-03-23T19:41:13.499Z,14.52
2023-03-23T19:45:17.604Z,14.49
2023-03-23T19:49:19.867Z,14.50
2023-03-23T19:53:23.076Z,14.48
2023-03-23T19:57:25.478Z,14.49
2023-03-23T20:01:28.288Z,14.47
2023-03-23T20:05:35.281Z,14.45
2023-03-23T20:09:39.086Z,14.40
2023-03-23T20:13:41.599Z,14.39
2023-03-23T20:17:44.144Z,14.35
2023-03-23T20:21:45.994Z,14.31
2023-03-23T20:25:49.731Z,14.27
2023-03-23T20:29:53.752Z,14.22
2023-03-23T20:34:02.060Z,14.09
2023-03-23T20:38:04.186Z,13.97
2023-03-23T20:42:11.602Z,13.93
2023-03-23T20:46:13.616Z,13.87
2023-03-23T20:50:15.335Z,13.86
2023-03-23T20:54:19.945Z,13.91
2023-03-23T20:58:22.540Z,14.06
2023-03-23T21:02:26.521Z,14.20
2023-03-23T21:06:29.166Z,14.37
2023-03-23T21:10:31.145Z,14.54
2023-03-23T21:14:33.949Z,14.74
2023-03-23T21:18:35.628Z,14.97
2023-03-23T21:22:37.493Z,15.03
2023-03-23T21:26:40.093Z,15.10
2023-03-23T21:30:45.801Z,15.13
2023-03-23T21:34:48.508Z,15.14
2023-03-23T21:38:50.734Z,15.16
2023-03-23T21:42:53.348Z,15.24
2023-03-23T21:46:55.085Z,15.27
2023-03-23T21:50:57.023Z,15.35
2023-03-23T21:54:59.719Z,15.31
2023-03-23T21:59:01.863Z,15.39
2023-03-23T22:03:04.898Z,15.40
2023-03-23T22:07:07.492Z,15.40
2023-03-23T22:11:23.223Z,15.46
2023-03-23T22:15:28.016Z,15.46
2023-03-23T22:19:29.786Z,15.39
2023-03-23T22:23:31.595Z,15.40
2023-03-23T22:27:33.252Z,15.38
2023-03-23T22:31:35.460Z,15.42
2023-03-23T22:35:37.656Z,15.45
2023-03-23T22:39:39.373Z,15.36
2023-03-23T22:43:41.063Z,15.38
2023-03-23T22:47:43.073Z,15.36
2023-03-23T22:51:45.068Z,15.35
2023-03-23T22:55:49.850Z,15.37
2023-03-23T22:59:51.562Z,15.36
2023-03-23T23:03:53.313Z,15.36
2023-03-23T23:07:55.305Z,15.32
2023-03-23T23:11:56.992Z,15.24
2023-03-23T23:16:00.978Z,14.94
2023-03-23T23:20:05.884Z,14.77
2023-03-23T23:24:08.055Z,14.58
2023-03-23T23:28:09.698Z,14.47
2023-03-23T23:32:11.360Z,14.49
2023-03-23T23:36:14.628Z,14.47
2023-03-23T23:40:17.771Z,14.43
2023-03-23T23:44:19.534Z,14.40
2023-03-23T23:48:21.777Z,14.40
2023-03-23T23:52:23.447Z,14.38
2023-03-23T23:56:25.767Z,14.32
